sensor_id;sensor_type;location;lat;lon;timestamp;pressure;altitude;pressure_sealevel;temperature;humidity
27144;BME280;14672;50.250;8.312;2023-03-18T00:00:51;98338.41;;;13.45;59.24
27144;BME280;14672;50.250;8.312;2023-03-18T00:03:22;98343.03;;;13.43;59.71
27144;BME280;14672;50.250;8.312;2023-03-18T00:05:49;98337.72;;;13.36;60.39
27144;BME280;14672;50.250;8.312;2023-03-18T00:08:15;98345.59;;;13.41;60.47
27144;BME280;14672;50.250;8.312;2023-03-18T00:10:41;98343.53;;;13.41;60.52
27144;BME280;14672;50.250;8.312;2023-03-18T00:13:07;98339.50;;;13.33;61.43
27144;BME280;14672;50.250;8.312;2023-03-18T00:15:33;98343.69;;;13.38;61.12
27144;BME280;14672;50.250;8.312;2023-03-18T00:17:59;98338.09;;;13.29;61.99
27144;BME280;14672;50.250;8.312;2023-03-18T00:20:25;98338.91;;;13.29;62.10
27144;BME280;14672;50.250;8.312;2023-03-18T00:23:05;98344.59;;;13.29;62.23
27144;BME280;14672;50.250;8.312;2023-03-18T00:25:32;98342.50;;;13.30;61.76
27144;BME280;14672;50.250;8.312;2023-03-18T00:27:58;98356.22;;;13.26;62.62
27144;BME280;14672;50.250;8.312;2023-03-18T00:30:25;98351.25;;;13.26;62.48
27144;BME280;14672;50.250;8.312;2023-03-18T00:32:50;98348.31;;;13.21;63.56
27144;BME280;14672;50.250;8.312;2023-03-18T00:35:17;98357.06;;;13.17;64.49
27144;BME280;14672;50.250;8.312;2023-03-18T00:37:44;98352.63;;;13.16;64.66
27144;BME280;14672;50.250;8.312;2023-03-18T00:40:11;98349.97;;;13.12;65.32
27144;BME280;14672;50.250;8.312;2023-03-18T00:42:45;98350.63;;;13.07;65.66
27144;BME280;14672;50.250;8.312;2023-03-18T00:45:23;98336.38;;;13.07;65.66
27144;BME280;14672;50.250;8.312;2023-03-18T00:47:49;98330.84;;;13.04;66.22
27144;BME280;14672;50.250;8.312;2023-03-18T00:50:16;98339.22;;;13.07;66.00
27144;BME280;14672;50.250;8.312;2023-03-18T00:52:42;98330.38;;;13.05;66.12
27144;BME280;14672;50.250;8.312;2023-03-18T00:55:09;98338.94;;;13.05;65.93
27144;BME280;14672;50.250;8.312;2023-03-18T00:57:35;98338.25;;;13.10;66.56
27144;BME280;14672;50.250;8.312;2023-03-18T01:00:04;98344.75;;;13.11;66.79
27144;BME280;14672;50.250;8.312;2023-03-18T01:02:31;98339.59;;;13.00;67.42
27144;BME280;14672;50.250;8.312;2023-03-18T01:04:57;98352.88;;;13.03;67.84
27144;BME280;14672;50.250;8.312;2023-03-18T01:07:23;98348.41;;;13.11;67.42
27144;BME280;14672;50.250;8.312;2023-03-18T01:09:49;98343.84;;;13.05;67.62
27144;BME280;14672;50.250;8.312;2023-03-18T01:12:15;98354.13;;;13.02;68.40
27144;BME280;14672;50.250;8.312;2023-03-18T01:14:41;98354.09;;;13.11;68.05
27144;BME280;14672;50.250;8.312;2023-03-18T01:17:08;98350.63;;;13.07;68.02
27144;BME280;14672;50.250;8.312;2023-03-18T01:19:35;98350.03;;;13.03;68.19
27144;BME280;14672;50.250;8.312;2023-03-18T01:22:02;98348.16;;;13.00;68.83
27144;BME280;14672;50.250;8.312;2023-03-18T01:24:29;98341.94;;;13.02;68.80
27144;BME280;14672;50.250;8.312;2023-03-18T01:26:55;98341.66;;;13.00;69.05
27144;BME280;14672;50.250;8.312;2023-03-18T01:29:21;98338.13;;;13.05;68.55
27144;BME280;14672;50.250;8.312;2023-03-18T01:31:49;98342.44;;;13.00;68.99
27144;BME280;14672;50.250;8.312;2023-03-18T01:34:15;98327.41;;;13.00;69.00
27144;BME280;14672;50.250;8.312;2023-03-18T01:36:42;98333.56;;;12.98;69.49
27144;BME280;14672;50.250;8.312;2023-03-18T01:39:08;98326.59;;;12.99;69.43
27144;BME280;14672;50.250;8.312;2023-03-18T01:41:35;98326.19;;;12.92;69.76
27144;BME280;14672;50.250;8.312;2023-03-18T01:44:01;98322.78;;;13.02;70.08
27144;BME280;14672;50.250;8.312;2023-03-18T01:46:41;98329.06;;;13.06;70.04
27144;BME280;14672;50.250;8.312;2023-03-18T01:49:33;98317.97;;;13.08;70.11
27144;BME280;14672;50.250;8.312;2023-03-18T01:52:17;98322.28;;;13.04;70.68
27144;BME280;14672;50.250;8.312;2023-03-18T01:55:06;98330.06;;;13.03;70.59
27144;BME280;14672;50.250;8.312;2023-03-18T01:57:34;98321.47;;;13.12;70.01
27144;BME280;14672;50.250;8.312;2023-03-18T02:00:01;98322.09;;;13.07;70.13
27144;BME280;14672;50.250;8.312;2023-03-18T02:02:28;98312.47;;;13.05;69.98
27144;BME280;14672;50.250;8.312;2023-03-18T02:05:01;98304.13;;;13.01;70.65
27144;BME280;14672;50.250;8.312;2023-03-18T02:07:31;98301.50;;;13.12;70.00
27144;BME280;14672;50.250;8.312;2023-03-18T02:10:05;98295.97;;;13.09;70.45
27144;BME280;14672;50.250;8.312;2023-03-18T02:12:38;98293.31;;;13.05;70.59
27144;BME280;14672;50.250;8.312;2023-03-18T02:15:13;98306.25;;;13.06;70.91
27144;BME280;14672;50.250;8.312;2023-03-18T02:17:46;98289.59;;;13.14;70.70
27144;BME280;14672;50.250;8.312;2023-03-18T02:23:28;98292.75;;;13.16;71.43
27144;BME280;14672;50.250;8.312;2023-03-18T02:26:36;98293.03;;;13.18;70.57
27144;BME280;14672;50.250;8.312;2023-03-18T02:29:05;98300.31;;;13.19;70.91
27144;BME280;14672;50.250;8.312;2023-03-18T02:31:35;98296.78;;;13.24;71.33
27144;BME280;14672;50.250;8.312;2023-03-18T02:34:01;98289.03;;;13.25;71.03
27144;BME280;14672;50.250;8.312;2023-03-18T02:36:31;98291.47;;;13.17;71.22
27144;BME280;14672;50.250;8.312;2023-03-18T02:38:57;98292.25;;;13.18;70.76
27144;BME280;14672;50.250;8.312;2023-03-18T02:41:34;98292.53;;;13.20;71.00
27144;BME280;14672;50.250;8.312;2023-03-18T02:44:01;98293.13;;;13.24;71.03
27144;BME280;14672;50.250;8.312;2023-03-18T02:46:51;98286.25;;;13.30;71.22
27144;BME280;14672;50.250;8.312;2023-03-18T02:49:21;98276.34;;;13.26;71.32
27144;BME280;14672;50.250;8.312;2023-03-18T02:51:47;98286.03;;;13.34;71.07
27144;BME280;14672;50.250;8.312;2023-03-18T02:54:20;98298.16;;;13.29;72.19
27144;BME280;14672;50.250;8.312;2023-03-18T02:56:47;98292.34;;;13.38;71.47
27144;BME280;14672;50.250;8.312;2023-03-18T02:59:13;98297.47;;;13.34;71.56
27144;BME280;14672;50.250;8.312;2023-03-18T03:01:41;98303.97;;;13.20;72.58
27144;BME280;14672;50.250;8.312;2023-03-18T03:04:08;98308.47;;;13.26;72.01
27144;BME280;14672;50.250;8.312;2023-03-18T03:06:34;98313.09;;;13.24;72.12
27144;BME280;14672;50.250;8.312;2023-03-18T03:09:04;98313.19;;;13.14;72.19
27144;BME280;14672;50.250;8.312;2023-03-18T03:11:30;98308.16;;;13.09;71.89
27144;BME280;14672;50.250;8.312;2023-03-18T03:13:55;98310.06;;;13.12;71.07
27144;BME280;14672;50.250;8.312;2023-03-18T03:16:22;98315.25;;;13.14;71.01
27144;BME280;14672;50.250;8.312;2023-03-18T03:18:48;98322.94;;;13.23;70.17
27144;BME280;14672;50.250;8.312;2023-03-18T03:21:15;98323.53;;;13.27;69.90
27144;BME280;14672;50.250;8.312;2023-03-18T03:23:43;98337.78;;;13.27;69.72
27144;BME280;14672;50.250;8.312;2023-03-18T03:26:09;98343.81;;;13.29;69.70
27144;BME280;14672;50.250;8.312;2023-03-18T03:28:36;98339.66;;;13.30;69.36
27144;BME280;14672;50.250;8.312;2023-03-18T03:31:03;98342.81;;;13.32;69.08
27144;BME280;14672;50.250;8.312;2023-03-18T03:33:29;98340.66;;;13.27;69.09
27144;BME280;14672;50.250;8.312;2023-03-18T03:35:55;98345.75;;;13.23;68.79
27144;BME280;14672;50.250;8.312;2023-03-18T03:38:22;98354.91;;;13.27;68.46
27144;BME280;14672;50.250;8.312;2023-03-18T03:40:49;98347.94;;;13.28;68.38
27144;BME280;14672;50.250;8.312;2023-03-18T03:43:15;98351.66;;;13.19;68.03
27144;BME280;14672;50.250;8.312;2023-03-18T03:45:42;98339.84;;;13.11;68.66
27144;BME280;14672;50.250;8.312;2023-03-18T03:48:11;98346.03;;;13.10;68.64
27144;BME280;14672;50.250;8.312;2023-03-18T03:50:38;98340.69;;;13.03;68.37
27144;BME280;14672;50.250;8.312;2023-03-18T03:53:04;98343.66;;;13.08;68.30
27144;BME280;14672;50.250;8.312;2023-03-18T03:55:31;98347.28;;;13.09;67.83
27144;BME280;14672;50.250;8.312;2023-03-18T03:57:58;98352.19;;;13.08;68.10
27144;BME280;14672;50.250;8.312;2023-03-18T04:00:24;98334.63;;;13.10;67.74
27144;BME280;14672;50.250;8.312;2023-03-18T04:02:52;98343.78;;;13.14;67.69
27144;BME280;14672;50.250;8.312;2023-03-18T04:05:20;98346.94;;;13.16;67.25
27144;BME280;14672;50.250;8.312;2023-03-18T04:07:47;98349.31;;;13.18;67.07
27144;BME280;14672;50.250;8.312;2023-03-18T04:10:18;98348.31;;;13.21;67.53
27144;BME280;14672;50.250;8.312;2023-03-18T04:12:45;98350.84;;;13.18;67.63
27144;BME280;14672;50.250;8.312;2023-03-18T04:15:13;98346.13;;;13.15;67.86
27144;BME280;14672;50.250;8.312;2023-03-18T04:17:40;98343.69;;;13.23;67.06
27144;BME280;14672;50.250;8.312;2023-03-18T04:20:07;98358.06;;;13.29;67.07
27144;BME280;14672;50.250;8.312;2023-03-18T04:22:33;98353.53;;;13.22;67.44
27144;BME280;14672;50.250;8.312;2023-03-18T04:24:59;98351.25;;;13.26;67.51
27144;BME280;14672;50.250;8.312;2023-03-18T04:27:25;98348.91;;;13.25;67.17
27144;BME280;14672;50.250;8.312;2023-03-18T04:29:53;98354.22;;;13.32;67.34
27144;BME280;14672;50.250;8.312;2023-03-18T04:32:19;98347.72;;;13.31;67.25
27144;BME280;14672;50.250;8.312;2023-03-18T04:34:45;98355.50;;;13.31;67.04
27144;BME280;14672;50.250;8.312;2023-03-18T04:37:11;98367.22;;;13.33;66.87
27144;BME280;14672;50.250;8.312;2023-03-18T04:39:39;98355.50;;;13.31;66.84
27144;BME280;14672;50.250;8.312;2023-03-18T04:42:06;98365.94;;;13.34;66.67
27144;BME280;14672;50.250;8.312;2023-03-18T04:44:32;98357.09;;;13.32;66.79
27144;BME280;14672;50.250;8.312;2023-03-18T04:46:58;98359.75;;;13.35;66.62
27144;BME280;14672;50.250;8.312;2023-03-18T04:49:24;98354.03;;;13.35;66.44
27144;BME280;14672;50.250;8.312;2023-03-18T04:51:50;98360.94;;;13.29;66.62
27144;BME280;14672;50.250;8.312;2023-03-18T04:54:16;98370.09;;;13.33;66.75
27144;BME280;14672;50.250;8.312;2023-03-18T04:56:41;98370.38;;;13.35;66.81
27144;BME280;14672;50.250;8.312;2023-03-18T04:59:08;98365.44;;;13.35;66.47
27144;BME280;14672;50.250;8.312;2023-03-18T05:01:34;98369.09;;;13.36;66.80
27144;BME280;14672;50.250;8.312;2023-03-18T05:04:00;98375.59;;;13.36;66.72
27144;BME280;14672;50.250;8.312;2023-03-18T05:06:29;98374.19;;;13.32;66.85
27144;BME280;14672;50.250;8.312;2023-03-18T05:08:58;98372.13;;;13.32;67.05
27144;BME280;14672;50.250;8.312;2023-03-18T05:11:25;98373.78;;;13.24;67.25
27144;BME280;14672;50.250;8.312;2023-03-18T05:13:51;98385.31;;;13.30;66.93
27144;BME280;14672;50.250;8.312;2023-03-18T05:16:17;98378.63;;;13.33;66.67
27144;BME280;14672;50.250;8.312;2023-03-18T05:18:43;98376.66;;;13.24;66.98
27144;BME280;14672;50.250;8.312;2023-03-18T05:21:10;98376.75;;;13.30;66.88
27144;BME280;14672;50.250;8.312;2023-03-18T05:23:37;98382.56;;;13.35;66.52
27144;BME280;14672;50.250;8.312;2023-03-18T05:26:04;98378.31;;;13.31;66.79
27144;BME280;14672;50.250;8.312;2023-03-18T05:28:31;98375.19;;;13.29;66.77
27144;BME280;14672;50.250;8.312;2023-03-18T05:30:57;98368.38;;;13.26;66.79
27144;BME280;14672;50.250;8.312;2023-03-18T05:33:23;98363.47;;;13.27;66.79
27144;BME280;14672;50.250;8.312;2023-03-18T05:35:49;98368.56;;;13.23;66.61
27144;BME280;14672;50.250;8.312;2023-03-18T05:38:15;98368.88;;;13.25;66.54
27144;BME280;14672;50.250;8.312;2023-03-18T05:40:40;98373.31;;;13.26;66.14
27144;BME280;14672;50.250;8.312;2023-03-18T05:43:06;98377.44;;;13.25;66.16
27144;BME280;14672;50.250;8.312;2023-03-18T05:45:32;98374.78;;;13.21;65.71
27144;BME280;14672;50.250;8.312;2023-03-18T05:47:58;98387.66;;;13.16;65.69
27144;BME280;14672;50.250;8.312;2023-03-18T05:50:39;98385.47;;;13.11;66.06
27144;BME280;14672;50.250;8.312;2023-03-18T05:53:07;98388.88;;;13.01;65.75
27144;BME280;14672;50.250;8.312;2023-03-18T05:55:34;98391.59;;;12.95;65.70
27144;BME280;14672;50.250;8.312;2023-03-18T05:58:00;98391.13;;;12.97;65.61
27144;BME280;14672;50.250;8.312;2023-03-18T06:00:29;98391.91;;;12.97;65.34
27144;BME280;14672;50.250;8.312;2023-03-18T06:02:58;98390.69;;;12.89;65.81
27144;BME280;14672;50.250;8.312;2023-03-18T06:05:26;98403.03;;;12.86;65.80
27144;BME280;14672;50.250;8.312;2023-03-18T06:07:53;98395.78;;;12.85;66.01
27144;BME280;14672;50.250;8.312;2023-03-18T06:10:21;98400.75;;;12.76;66.44
27144;BME280;14672;50.250;8.312;2023-03-18T06:12:48;98401.53;;;12.76;66.40
27144;BME280;14672;50.250;8.312;2023-03-18T06:15:15;98403.78;;;12.72;67.17
27144;BME280;14672;50.250;8.312;2023-03-18T06:17:42;98399.88;;;12.69;67.02
27144;BME280;14672;50.250;8.312;2023-03-18T06:20:09;98399.88;;;12.69;66.83
27144;BME280;14672;50.250;8.312;2023-03-18T06:22:36;98411.41;;;12.66;67.00
27144;BME280;14672;50.250;8.312;2023-03-18T06:25:04;98402.22;;;12.71;67.29
27144;BME280;14672;50.250;8.312;2023-03-18T06:27:33;98396.03;;;12.73;67.89
27144;BME280;14672;50.250;8.312;2023-03-18T06:30:00;98406.66;;;12.72;67.97
27144;BME280;14672;50.250;8.312;2023-03-18T06:32:30;98407.72;;;12.75;67.77
27144;BME280;14672;50.250;8.312;2023-03-18T06:34:56;98417.38;;;12.77;68.12
27144;BME280;14672;50.250;8.312;2023-03-18T06:37:22;98400.56;;;12.79;67.96
27144;BME280;14672;50.250;8.312;2023-03-18T06:39:48;98408.16;;;12.82;68.17
27144;BME280;14672;50.250;8.312;2023-03-18T06:42:14;98404.03;;;12.83;67.47
27144;BME280;14672;50.250;8.312;2023-03-18T06:44:40;98405.56;;;12.93;67.25
27144;BME280;14672;50.250;8.312;2023-03-18T06:47:09;98399.34;;;12.95;67.02
27144;BME280;14672;50.250;8.312;2023-03-18T06:49:34;98411.44;;;12.90;67.22
27144;BME280;14672;50.250;8.312;2023-03-18T06:52:00;98411.25;;;12.93;67.20
27144;BME280;14672;50.250;8.312;2023-03-18T06:54:26;98415.97;;;12.96;67.15
27144;BME280;14672;50.250;8.312;2023-03-18T06:56:53;98414.09;;;12.93;67.24
27144;BME280;14672;50.250;8.312;2023-03-18T06:59:19;98420.69;;;12.99;68.00
27144;BME280;14672;50.250;8.312;2023-03-18T07:01:47;98414.63;;;13.06;67.71
27144;BME280;14672;50.250;8.312;2023-03-18T07:04:14;98420.66;;;13.08;67.61
27144;BME280;14672;50.250;8.312;2023-03-18T07:06:39;98431.88;;;13.12;66.90
27144;BME280;14672;50.250;8.312;2023-03-18T07:09:06;98425.81;;;13.19;66.09
27144;BME280;14672;50.250;8.312;2023-03-18T07:11:33;98434.50;;;13.25;65.58
27144;BME280;14672;50.250;8.312;2023-03-18T07:13:59;98436.06;;;13.26;65.42
27144;BME280;14672;50.250;8.312;2023-03-18T07:16:24;98432.31;;;13.20;66.00
27144;BME280;14672;50.250;8.312;2023-03-18T07:18:50;98436.56;;;13.24;65.90
27144;BME280;14672;50.250;8.312;2023-03-18T07:21:17;98430.94;;;13.30;66.05
27144;BME280;14672;50.250;8.312;2023-03-18T07:23:42;98434.22;;;13.37;65.89
27144;BME280;14672;50.250;8.312;2023-03-18T07:26:09;98428.94;;;13.45;65.94
27144;BME280;14672;50.250;8.312;2023-03-18T07:28:37;98428.06;;;13.53;65.92
27144;BME280;14672;50.250;8.312;2023-03-18T07:31:03;98429.44;;;13.58;65.51
27144;BME280;14672;50.250;8.312;2023-03-18T07:33:29;98431.22;;;13.70;64.38
27144;BME280;14672;50.250;8.312;2023-03-18T07:35:54;98438.81;;;13.73;63.48
27144;BME280;14672;50.250;8.312;2023-03-18T07:38:21;98438.72;;;13.82;62.82
27144;BME280;14672;50.250;8.312;2023-03-18T07:40:48;98435.97;;;13.88;62.97
27144;BME280;14672;50.250;8.312;2023-03-18T07:43:13;98438.41;;;13.95;62.50
27144;BME280;14672;50.250;8.312;2023-03-18T07:45:40;98438.81;;;14.02;62.23
27144;BME280;14672;50.250;8.312;2023-03-18T07:48:05;98452.09;;;14.05;61.80
27144;BME280;14672;50.250;8.312;2023-03-18T07:50:32;98451.13;;;14.08;61.19
27144;BME280;14672;50.250;8.312;2023-03-18T07:52:58;98449.47;;;14.17;60.69
27144;BME280;14672;50.250;8.312;2023-03-18T07:55:24;98448.34;;;14.14;60.16
27144;BME280;14672;50.250;8.312;2023-03-18T07:57:50;98443.34;;;14.24;59.46
27144;BME280;14672;50.250;8.312;2023-03-18T08:00:16;98444.19;;;14.30;59.62
27144;BME280;14672;50.250;8.312;2023-03-18T08:02:42;98439.06;;;14.34;59.60
27144;BME280;14672;50.250;8.312;2023-03-18T08:05:09;98433.97;;;14.38;59.60
27144;BME280;14672;50.250;8.312;2023-03-18T08:07:35;98436.34;;;14.39;59.39
27144;BME280;14672;50.250;8.312;2023-03-18T08:10:01;98439.06;;;14.34;59.52
27144;BME280;14672;50.250;8.312;2023-03-18T08:12:27;98438.28;;;14.33;59.68
27144;BME280;14672;50.250;8.312;2023-03-18T08:14:53;98434.16;;;14.49;59.81
27144;BME280;14672;50.250;8.312;2023-03-18T08:17:19;98437.03;;;14.49;59.48
27144;BME280;14672;50.250;8.312;2023-03-18T08:19:46;98437.78;;;14.64;59.78
27144;BME280;14672;50.250;8.312;2023-03-18T08:22:14;98442.19;;;14.65;59.74
27144;BME280;14672;50.250;8.312;2023-03-18T08:24:40;98440.00;;;14.75;59.37
27144;BME280;14672;50.250;8.312;2023-03-18T08:27:07;98444.72;;;14.78;59.52
27144;BME280;14672;50.250;8.312;2023-03-18T08:29:35;98441.94;;;14.83;59.40
27144;BME280;14672;50.250;8.312;2023-03-18T08:32:01;98437.88;;;14.90;59.35
27144;BME280;14672;50.250;8.312;2023-03-18T08:34:26;98442.69;;;14.98;59.52
27144;BME280;14672;50.250;8.312;2023-03-18T08:36:52;98444.53;;;15.01;59.27
27144;BME280;14672;50.250;8.312;2023-03-18T08:39:18;98445.97;;;15.12;59.51
27144;BME280;14672;50.250;8.312;2023-03-18T08:41:44;98448.84;;;15.12;59.27
27144;BME280;14672;50.250;8.312;2023-03-18T08:44:10;98453.56;;;15.15;58.89
27144;BME280;14672;50.250;8.312;2023-03-18T08:46:37;98456.41;;;15.15;58.63
27144;BME280;14672;50.250;8.312;2023-03-18T08:49:04;98447.97;;;15.26;58.54
27144;BME280;14672;50.250;8.312;2023-03-18T08:51:30;98457.69;;;15.34;58.60
27144;BME280;14672;50.250;8.312;2023-03-18T08:53:57;98453.41;;;15.44;59.38
27144;BME280;14672;50.250;8.312;2023-03-18T08:56:23;98455.88;;;15.51;58.84
27144;BME280;14672;50.250;8.312;2023-03-18T08:58:50;98464.88;;;15.64;58.52
27144;BME280;14672;50.250;8.312;2023-03-18T09:01:17;98460.56;;;15.74;58.28
27144;BME280;14672;50.250;8.312;2023-03-18T09:03:44;98464.88;;;15.90;58.40
27144;BME280;14672;50.250;8.312;2023-03-18T09:06:10;98456.94;;;16.00;58.15
27144;BME280;14672;50.250;8.312;2023-03-18T09:08:37;98454.31;;;16.02;57.33
27144;BME280;14672;50.250;8.312;2023-03-18T09:11:04;98454.25;;;16.22;57.05
27144;BME280;14672;50.250;8.312;2023-03-18T09:13:32;98455.06;;;16.22;56.97
27144;BME280;14672;50.250;8.312;2023-03-18T09:15:58;98447.88;;;16.38;57.10
27144;BME280;14672;50.250;8.312;2023-03-18T09:18:24;98446.84;;;16.41;57.10
27144;BME280;14672;50.250;8.312;2023-03-18T09:20:51;98455.28;;;16.50;56.92
27144;BME280;14672;50.250;8.312;2023-03-18T09:23:17;98448.88;;;16.61;56.92
27144;BME280;14672;50.250;8.312;2023-03-18T09:25:46;98439.84;;;16.73;56.98
27144;BME280;14672;50.250;8.312;2023-03-18T09:28:13;98431.28;;;16.84;56.45
27144;BME280;14672;50.250;8.312;2023-03-18T09:30:39;98437.13;;;16.96;55.09
27144;BME280;14672;50.250;8.312;2023-03-18T09:33:06;98436.09;;;17.04;55.15
27144;BME280;14672;50.250;8.312;2023-03-18T09:35:33;98439.81;;;17.16;56.19
27144;BME280;14672;50.250;8.312;2023-03-18T09:37:59;98442.47;;;17.25;55.47
27144;BME280;14672;50.250;8.312;2023-03-18T09:40:28;98447.75;;;17.37;54.12
27144;BME280;14672;50.250;8.312;2023-03-18T09:43:08;98444.38;;;17.39;53.07
27144;BME280;14672;50.250;8.312;2023-03-18T09:54:45;98422.00;;;22.45;43.06
27144;BME280;14672;50.250;8.312;2023-03-18T09:57:30;98427.03;;;22.45;42.99
27144;BME280;14672;50.250;8.312;2023-03-18T10:00:26;98431.47;;;21.77;42.66
27144;BME280;14672;50.250;8.312;2023-03-18T10:03:22;98430.72;;;21.03;43.83
27144;BME280;14672;50.250;8.312;2023-03-18T10:11:42;98415.53;;;20.08;47.46
27144;BME280;14672;50.250;8.312;2023-03-18T10:14:34;98419.91;;;20.20;48.38
27144;BME280;14672;50.250;8.312;2023-03-18T10:17:36;98423.47;;;20.02;47.80
27144;BME280;14672;50.250;8.312;2023-03-18T10:20:35;98421.09;;;20.06;48.14
27144;BME280;14672;50.250;8.312;2023-03-18T10:23:06;98422.63;;;20.07;48.45
27144;BME280;14672;50.250;8.312;2023-03-18T10:25:50;98421.91;;;19.95;48.28
27144;BME280;14672;50.250;8.312;2023-03-18T10:34:24;98414.31;;;19.51;48.90
27144;BME280;14672;50.250;8.312;2023-03-18T10:37:04;98417.75;;;19.39;48.54
27144;BME280;14672;50.250;8.312;2023-03-18T10:39:30;98427.72;;;19.38;49.16
27144;BME280;14672;50.250;8.312;2023-03-18T10:42:06;98431.91;;;19.31;48.73
27144;BME280;14672;50.250;8.312;2023-03-18T10:44:39;98433.00;;;19.17;48.73
27144;BME280;14672;50.250;8.312;2023-03-18T10:47:13;98433.56;;;19.10;48.97
27144;BME280;14672;50.250;8.312;2023-03-18T10:50:09;98429.81;;;19.37;48.24
27144;BME280;14672;50.250;8.312;2023-03-18T10:55:47;98432.59;;;19.59;48.17
27144;BME280;14672;50.250;8.312;2023-03-18T10:58:17;98430.00;;;19.61;47.70
27144;BME280;14672;50.250;8.312;2023-03-18T11:00:44;98425.19;;;19.75;48.19
27144;BME280;14672;50.250;8.312;2023-03-18T11:03:53;98424.28;;;19.97;47.62
27144;BME280;14672;50.250;8.312;2023-03-18T11:09:34;98423.19;;;20.41;47.25
27144;BME280;14672;50.250;8.312;2023-03-18T11:12:18;98425.84;;;20.69;47.21
27144;BME280;14672;50.250;8.312;2023-03-18T11:14:49;98426.31;;;20.73;46.80
27144;BME280;14672;50.250;8.312;2023-03-18T11:17:28;98429.25;;;20.97;46.57
27144;BME280;14672;50.250;8.312;2023-03-18T11:19:59;98428.03;;;21.11;46.79
27144;BME280;14672;50.250;8.312;2023-03-18T11:22:26;98424.63;;;21.13;46.72
27144;BME280;14672;50.250;8.312;2023-03-18T11:25:21;98418.22;;;20.95;46.82
27144;BME280;14672;50.250;8.312;2023-03-18T11:27:59;98434.09;;;21.07;46.32
27144;BME280;14672;50.250;8.312;2023-03-18T11:30:34;98433.94;;;21.00;47.21
27144;BME280;14672;50.250;8.312;2023-03-18T11:35:56;98422.53;;;20.83;45.99
27144;BME280;14672;50.250;8.312;2023-03-18T11:38:30;98422.63;;;20.78;46.12
27144;BME280;14672;50.250;8.312;2023-03-18T11:41:17;98426.25;;;20.78;46.40
27144;BME280;14672;50.250;8.312;2023-03-18T11:43:59;98426.34;;;20.97;46.38
27144;BME280;14672;50.250;8.312;2023-03-18T11:49:03;98424.97;;;21.28;46.28
27144;BME280;14672;50.250;8.312;2023-03-18T11:52:00;98422.41;;;21.24;45.63
27144;BME280;14672;50.250;8.312;2023-03-18T12:01:02;98423.06;;;21.12;45.74
27144;BME280;14672;50.250;8.312;2023-03-18T12:03:52;98430.50;;;21.01;45.79
27144;BME280;14672;50.250;8.312;2023-03-18T12:06:36;98425.53;;;21.02;45.66
27144;BME280;14672;50.250;8.312;2023-03-18T12:09:28;98422.06;;;21.03;45.73
27144;BME280;14672;50.250;8.312;2023-03-18T12:15:03;98421.09;;;20.71;46.26
27144;BME280;14672;50.250;8.312;2023-03-18T12:17:55;98418.22;;;20.95;46.73
27144;BME280;14672;50.250;8.312;2023-03-18T12:26:20;98409.72;;;21.03;45.75
27144;BME280;14672;50.250;8.312;2023-03-18T12:29:42;98404.91;;;20.87;45.58
27144;BME280;14672;50.250;8.312;2023-03-18T12:36:10;98408.09;;;20.83;44.57
27144;BME280;14672;50.250;8.312;2023-03-18T12:47:19;98401.69;;;20.42;47.51
27144;BME280;14672;50.250;8.312;2023-03-18T13:04:06;98383.19;;;20.26;47.73
27144;BME280;14672;50.250;8.312;2023-03-18T13:07:14;98395.25;;;20.25;46.73
27144;BME280;14672;50.250;8.312;2023-03-18T13:09:55;98383.94;;;20.32;46.40
27144;BME280;14672;50.250;8.312;2023-03-18T13:15:37;98389.78;;;20.51;46.52
27144;BME280;14672;50.250;8.312;2023-03-18T13:18:35;98387.53;;;20.38;46.28
27144;BME280;14672;50.250;8.312;2023-03-18T13:21:05;98382.81;;;20.41;46.52
27144;BME280;14672;50.250;8.312;2023-03-18T13:38:12;98375.22;;;20.38;46.03
27144;BME280;14672;50.250;8.312;2023-03-18T13:43:44;98371.94;;;20.52;45.47
27144;BME280;14672;50.250;8.312;2023-03-18T13:46:24;98378.78;;;20.49;45.39
27144;BME280;14672;50.250;8.312;2023-03-18T13:48:57;98367.00;;;20.47;45.44
27144;BME280;14672;50.250;8.312;2023-03-18T13:53:53;98368.97;;;20.28;44.77
27144;BME280;14672;50.250;8.312;2023-03-18T13:59:03;98360.66;;;20.19;44.91
27144;BME280;14672;50.250;8.312;2023-03-18T14:01:50;98370.16;;;20.14;44.84
27144;BME280;14672;50.250;8.312;2023-03-18T14:04:43;98375.44;;;20.10;44.58
27144;BME280;14672;50.250;8.312;2023-03-18T14:07:17;98374.66;;;20.09;44.35
27144;BME280;14672;50.250;8.312;2023-03-18T14:09:50;98372.78;;;20.12;45.04
27144;BME280;14672;50.250;8.312;2023-03-18T14:20:39;98361.38;;;19.95;46.27
27144;BME280;14672;50.250;8.312;2023-03-18T14:26:15;98372.91;;;19.95;46.53
27144;BME280;14672;50.250;8.312;2023-03-18T14:39:43;98356.75;;;20.16;44.82
27144;BME280;14672;50.250;8.312;2023-03-18T14:42:36;98366.69;;;20.21;45.03
27144;BME280;14672;50.250;8.312;2023-03-18T14:45:37;98362.63;;;20.05;44.42
27144;BME280;14672;50.250;8.312;2023-03-18T14:48:18;98367.69;;;19.94;44.52
27144;BME280;14672;50.250;8.312;2023-03-18T14:50:48;98370.81;;;19.96;44.00
27144;BME280;14672;50.250;8.312;2023-03-18T14:53:37;98361.88;;;19.99;43.47
27144;BME280;14672;50.250;8.312;2023-03-18T14:56:14;98361.63;;;19.97;44.42
27144;BME280;14672;50.250;8.312;2023-03-18T14:58:45;98368.19;;;19.98;45.25
27144;BME280;14672;50.250;8.312;2023-03-18T15:01:13;98366.41;;;19.89;45.01
27144;BME280;14672;50.250;8.312;2023-03-18T15:03:46;98362.16;;;19.96;44.85
27144;BME280;14672;50.250;8.312;2023-03-18T15:06:24;98363.91;;;20.10;44.79
27144;BME280;14672;50.250;8.312;2023-03-18T15:09:05;98362.22;;;20.20;44.97
27144;BME280;14672;50.250;8.312;2023-03-18T15:11:43;98367.97;;;20.55;44.59
27144;BME280;14672;50.250;8.312;2023-03-18T15:14:18;98360.41;;;20.52;44.51
27144;BME280;14672;50.250;8.312;2023-03-18T15:16:51;98350.50;;;20.42;44.64
27144;BME280;14672;50.250;8.312;2023-03-18T15:19:19;98354.19;;;20.43;44.27
27144;BME280;14672;50.250;8.312;2023-03-18T15:21:45;98353.69;;;20.39;43.80
27144;BME280;14672;50.250;8.312;2023-03-18T15:24:22;98352.69;;;20.36;43.82